Alicia, Arkansas
Current Conditions -  °F | °C
As of 11:56 AM on Sunday 23 Nov 2014 (Local Time) from KM19 Reporting Station
Light Rain Light Rain  
Wind Chill: 15°   Ceiling: 500
Heat Index: 15°   Visibility: 10mi
Dew Point: 15°   Wind: 13mph
Humidity: 100%   Direction: 140°SE
Pressure: 29.48"   Gusts: NA
Location:  35.89°N, 91.08°W
Report Text: KM19 231756Z AUTO 14011KT 10SM -RA OVC005 15/15 A2948 RMK AO2 58053 60038 T01500150 10150 20127 P0003 SLP981
Loading
Personal Weather Stations






























Interactive Weather Map New forecast layout! Learn more

10-Day Weather Forecast

Advertisements
Track Severe Weather on mobile